sensor_id;sensor_type;location;lat;lon;timestamp;P1;durP1;ratioP1;P2;durP2;ratioP2
29848;SDS011;16728;50.832;5.590;2023-02-22T00:01:39;88.97;;;25.27;;
29848;SDS011;16728;50.832;5.590;2023-02-22T00:05:11;63.90;;;24.35;;
29848;SDS011;16728;50.832;5.590;2023-02-22T00:08:16;97.68;;;24.40;;
29848;SDS011;16728;50.832;5.590;2023-02-22T00:11:18;82.17;;;24.50;;
29848;SDS011;16728;50.832;5.590;2023-02-22T00:14:20;65.95;;;25.10;;
29848;SDS011;16728;50.832;5.590;2023-02-22T00:17:22;70.95;;;25.23;;
29848;SDS011;16728;50.832;5.590;2023-02-22T00:20:24;77.07;;;24.05;;
29848;SDS011;16728;50.832;5.590;2023-02-22T00:23:28;50.97;;;25.60;;
29848;SDS011;16728;50.832;5.590;2023-02-22T00:26:32;120.57;;;26.42;;
29848;SDS011;16728;50.832;5.590;2023-02-22T00:29:34;73.65;;;24.55;;
29848;SDS011;16728;50.832;5.590;2023-02-22T00:32:36;79.47;;;25.60;;
29848;SDS011;16728;50.832;5.590;2023-02-22T00:35:38;77.78;;;26.73;;
29848;SDS011;16728;50.832;5.590;2023-02-22T00:38:41;102.25;;;27.25;;
29848;SDS011;16728;50.832;5.590;2023-02-22T00:41:43;76.68;;;25.63;;
29848;SDS011;16728;50.832;5.590;2023-02-22T00:44:45;64.25;;;27.50;;
29848;SDS011;16728;50.832;5.590;2023-02-22T00:47:47;146.77;;;28.58;;
29848;SDS011;16728;50.832;5.590;2023-02-22T00:50:49;98.53;;;26.77;;
29848;SDS011;16728;50.832;5.590;2023-02-22T00:53:55;73.85;;;27.02;;
29848;SDS011;16728;50.832;5.590;2023-02-22T00:56:57;179.50;;;24.65;;
29848;SDS011;16728;50.832;5.590;2023-02-22T01:00:00;215.07;;;22.60;;
29848;SDS011;16728;50.832;5.590;2023-02-22T01:03:16;76.67;;;20.53;;
29848;SDS011;16728;50.832;5.590;2023-02-22T01:06:19;134.23;;;21.73;;
29848;SDS011;16728;50.832;5.590;2023-02-22T01:09:22;119.20;;;21.52;;
29848;SDS011;16728;50.832;5.590;2023-02-22T01:12:24;111.40;;;22.23;;
29848;SDS011;16728;50.832;5.590;2023-02-22T01:15:28;67.53;;;22.23;;
29848;SDS011;16728;50.832;5.590;2023-02-22T01:21:32;75.35;;;21.73;;
29848;SDS011;16728;50.832;5.590;2023-02-22T01:24:34;97.95;;;23.38;;
29848;SDS011;16728;50.832;5.590;2023-02-22T01:27:36;59.47;;;23.48;;
29848;SDS011;16728;50.832;5.590;2023-02-22T01:30:39;112.57;;;17.63;;
29848;SDS011;16728;50.832;5.590;2023-02-22T01:33:41;73.78;;;23.02;;
29848;SDS011;16728;50.832;5.590;2023-02-22T01:36:43;179.05;;;24.70;;
29848;SDS011;16728;50.832;5.590;2023-02-22T01:39:45;101.90;;;23.52;;
29848;SDS011;16728;50.832;5.590;2023-02-22T01:42:50;110.30;;;21.95;;
29848;SDS011;16728;50.832;5.590;2023-02-22T01:45:57;99.07;;;21.38;;
29848;SDS011;16728;50.832;5.590;2023-02-22T01:49:03;57.03;;;21.15;;
29848;SDS011;16728;50.832;5.590;2023-02-22T01:52:07;99.05;;;21.35;;
29848;SDS011;16728;50.832;5.590;2023-02-22T01:55:13;102.90;;;19.63;;
29848;SDS011;16728;50.832;5.590;2023-02-22T01:58:15;110.30;;;20.25;;
29848;SDS011;16728;50.832;5.590;2023-02-22T02:04:22;117.88;;;15.52;;
29848;SDS011;16728;50.832;5.590;2023-02-22T02:07:25;49.85;;;20.83;;
29848;SDS011;16728;50.832;5.590;2023-02-22T02:10:29;145.70;;;22.20;;
29848;SDS011;16728;50.832;5.590;2023-02-22T02:13:32;68.22;;;20.15;;
29848;SDS011;16728;50.832;5.590;2023-02-22T02:16:42;70.68;;;21.63;;
29848;SDS011;16728;50.832;5.590;2023-02-22T02:20:21;120.03;;;23.50;;
29848;SDS011;16728;50.832;5.590;2023-02-22T02:27:05;97.38;;;22.23;;
29848;SDS011;16728;50.832;5.590;2023-02-22T02:37:17;70.70;;;20.08;;
29848;SDS011;16728;50.832;5.590;2023-02-22T02:46:38;54.13;;;17.70;;
29848;SDS011;16728;50.832;5.590;2023-02-22T02:49:54;54.67;;;16.02;;
29848;SDS011;16728;50.832;5.590;2023-02-22T02:53:03;30.52;;;14.55;;
29848;SDS011;16728;50.832;5.590;2023-02-22T02:56:08;31.52;;;16.55;;
29848;SDS011;16728;50.832;5.590;2023-02-22T02:59:33;33.97;;;16.02;;
29848;SDS011;16728;50.832;5.590;2023-02-22T03:02:47;52.38;;;15.63;;
29848;SDS011;16728;50.832;5.590;2023-02-22T03:15:43;30.63;;;12.93;;
29848;SDS011;16728;50.832;5.590;2023-02-22T03:18:59;24.02;;;11.27;;
29848;SDS011;16728;50.832;5.590;2023-02-22T03:22:17;22.42;;;10.75;;
29848;SDS011;16728;50.832;5.590;2023-02-22T03:25:29;21.25;;;10.00;;
29848;SDS011;16728;50.832;5.590;2023-02-22T03:28:47;29.77;;;9.43;;
29848;SDS011;16728;50.832;5.590;2023-02-22T03:31:55;20.55;;;8.82;;
29848;SDS011;16728;50.832;5.590;2023-02-22T03:35:04;31.25;;;10.25;;
29848;SDS011;16728;50.832;5.590;2023-02-22T03:38:10;50.95;;;10.05;;
29848;SDS011;16728;50.832;5.590;2023-02-22T03:41:17;45.88;;;9.98;;
29848;SDS011;16728;50.832;5.590;2023-02-22T03:44:26;45.30;;;9.95;;
29848;SDS011;16728;50.832;5.590;2023-02-22T03:47:34;52.15;;;10.73;;
29848;SDS011;16728;50.832;5.590;2023-02-22T03:50:41;29.48;;;11.27;;
29848;SDS011;16728;50.832;5.590;2023-02-22T03:53:43;32.70;;;10.95;;
29848;SDS011;16728;50.832;5.590;2023-02-22T03:57:03;44.67;;;12.70;;
29848;SDS011;16728;50.832;5.590;2023-02-22T04:00:12;25.23;;;11.80;;
29848;SDS011;16728;50.832;5.590;2023-02-22T04:03:18;33.33;;;12.05;;
29848;SDS011;16728;50.832;5.590;2023-02-22T04:06:20;24.60;;;12.23;;
29848;SDS011;16728;50.832;5.590;2023-02-22T04:09:22;39.97;;;12.82;;
29848;SDS011;16728;50.832;5.590;2023-02-22T04:12:24;24.00;;;12.27;;
29848;SDS011;16728;50.832;5.590;2023-02-22T04:15:26;28.38;;;13.02;;
29848;SDS011;16728;50.832;5.590;2023-02-22T04:18:28;22.63;;;13.52;;
29848;SDS011;16728;50.832;5.590;2023-02-22T04:21:30;26.48;;;13.60;;
29848;SDS011;16728;50.832;5.590;2023-02-22T04:24:32;18.92;;;13.88;;
29848;SDS011;16728;50.832;5.590;2023-02-22T04:27:34;21.40;;;14.68;;
29848;SDS011;16728;50.832;5.590;2023-02-22T04:30:36;20.10;;;14.05;;
29848;SDS011;16728;50.832;5.590;2023-02-22T04:33:38;21.85;;;14.35;;
29848;SDS011;16728;50.832;5.590;2023-02-22T04:36:39;21.17;;;14.35;;
29848;SDS011;16728;50.832;5.590;2023-02-22T04:39:44;22.27;;;13.60;;
29848;SDS011;16728;50.832;5.590;2023-02-22T04:42:46;20.33;;;14.23;;
29848;SDS011;16728;50.832;5.590;2023-02-22T04:45:48;21.02;;;13.95;;
29848;SDS011;16728;50.832;5.590;2023-02-22T04:48:50;17.08;;;13.50;;
29848;SDS011;16728;50.832;5.590;2023-02-22T04:51:53;19.45;;;12.80;;
29848;SDS011;16728;50.832;5.590;2023-02-22T04:54:55;18.25;;;12.65;;
29848;SDS011;16728;50.832;5.590;2023-02-22T04:57:57;20.25;;;14.02;;
29848;SDS011;16728;50.832;5.590;2023-02-22T05:00:59;20.55;;;13.05;;
29848;SDS011;16728;50.832;5.590;2023-02-22T05:04:05;19.97;;;13.77;;
29848;SDS011;16728;50.832;5.590;2023-02-22T05:07:08;18.35;;;12.88;;
29848;SDS011;16728;50.832;5.590;2023-02-22T05:10:10;20.77;;;14.45;;
29848;SDS011;16728;50.832;5.590;2023-02-22T05:13:12;21.67;;;14.90;;
29848;SDS011;16728;50.832;5.590;2023-02-22T05:16:14;23.85;;;15.10;;
29848;SDS011;16728;50.832;5.590;2023-02-22T05:19:16;29.88;;;16.92;;
29848;SDS011;16728;50.832;5.590;2023-02-22T05:22:17;32.20;;;16.80;;
29848;SDS011;16728;50.832;5.590;2023-02-22T05:25:19;33.72;;;16.70;;
29848;SDS011;16728;50.832;5.590;2023-02-22T05:28:21;31.50;;;17.70;;
29848;SDS011;16728;50.832;5.590;2023-02-22T05:31:23;28.42;;;16.73;;
29848;SDS011;16728;50.832;5.590;2023-02-22T05:34:25;26.80;;;15.93;;
29848;SDS011;16728;50.832;5.590;2023-02-22T05:37:27;26.30;;;14.57;;
29848;SDS011;16728;50.832;5.590;2023-02-22T05:40:29;21.08;;;14.35;;
29848;SDS011;16728;50.832;5.590;2023-02-22T05:43:31;24.27;;;14.80;;
29848;SDS011;16728;50.832;5.590;2023-02-22T05:46:33;25.73;;;15.50;;
29848;SDS011;16728;50.832;5.590;2023-02-22T05:49:35;21.98;;;14.13;;
29848;SDS011;16728;50.832;5.590;2023-02-22T05:52:38;24.67;;;15.15;;
29848;SDS011;16728;50.832;5.590;2023-02-22T05:55:40;25.65;;;16.08;;
29848;SDS011;16728;50.832;5.590;2023-02-22T05:58:42;21.38;;;14.55;;
29848;SDS011;16728;50.832;5.590;2023-02-22T06:01:44;18.92;;;12.73;;
29848;SDS011;16728;50.832;5.590;2023-02-22T06:04:46;20.25;;;13.20;;
29848;SDS011;16728;50.832;5.590;2023-02-22T06:07:48;21.13;;;12.95;;
29848;SDS011;16728;50.832;5.590;2023-02-22T06:10:49;20.67;;;13.48;;
29848;SDS011;16728;50.832;5.590;2023-02-22T06:13:51;20.10;;;13.60;;
29848;SDS011;16728;50.832;5.590;2023-02-22T06:16:55;19.77;;;13.27;;
29848;SDS011;16728;50.832;5.590;2023-02-22T06:19:57;23.55;;;14.07;;
29848;SDS011;16728;50.832;5.590;2023-02-22T06:22:59;19.25;;;13.32;;
29848;SDS011;16728;50.832;5.590;2023-02-22T06:26:01;17.90;;;12.68;;
29848;SDS011;16728;50.832;5.590;2023-02-22T06:29:03;20.42;;;12.82;;
29848;SDS011;16728;50.832;5.590;2023-02-22T06:32:06;25.15;;;14.57;;
29848;SDS011;16728;50.832;5.590;2023-02-22T06:35:08;24.02;;;14.63;;
29848;SDS011;16728;50.832;5.590;2023-02-22T06:38:10;22.77;;;14.20;;
29848;SDS011;16728;50.832;5.590;2023-02-22T06:41:12;21.33;;;13.27;;
29848;SDS011;16728;50.832;5.590;2023-02-22T06:44:16;22.73;;;15.07;;
29848;SDS011;16728;50.832;5.590;2023-02-22T06:47:17;22.30;;;14.00;;
29848;SDS011;16728;50.832;5.590;2023-02-22T06:53:30;22.75;;;15.18;;
29848;SDS011;16728;50.832;5.590;2023-02-22T06:56:32;22.05;;;14.40;;
29848;SDS011;16728;50.832;5.590;2023-02-22T06:59:33;23.13;;;14.80;;
29848;SDS011;16728;50.832;5.590;2023-02-22T07:02:35;25.88;;;14.85;;
29848;SDS011;16728;50.832;5.590;2023-02-22T07:05:38;21.35;;;14.63;;
29848;SDS011;16728;50.832;5.590;2023-02-22T07:08:40;24.63;;;14.23;;
29848;SDS011;16728;50.832;5.590;2023-02-22T07:11:42;24.17;;;13.70;;
29848;SDS011;16728;50.832;5.590;2023-02-22T07:14:44;23.73;;;14.52;;
29848;SDS011;16728;50.832;5.590;2023-02-22T07:17:46;18.42;;;13.35;;
29848;SDS011;16728;50.832;5.590;2023-02-22T07:20:49;19.08;;;12.90;;
29848;SDS011;16728;50.832;5.590;2023-02-22T07:23:55;21.07;;;13.17;;
29848;SDS011;16728;50.832;5.590;2023-02-22T07:26:57;21.63;;;12.82;;
29848;SDS011;16728;50.832;5.590;2023-02-22T07:30:01;19.30;;;13.07;;
29848;SDS011;16728;50.832;5.590;2023-02-22T07:33:05;22.77;;;13.27;;
29848;SDS011;16728;50.832;5.590;2023-02-22T07:36:08;20.33;;;13.57;;
29848;SDS011;16728;50.832;5.590;2023-02-22T07:39:10;21.80;;;12.93;;
29848;SDS011;16728;50.832;5.590;2023-02-22T07:42:12;27.08;;;14.63;;
29848;SDS011;16728;50.832;5.590;2023-02-22T07:45:14;21.33;;;13.52;;
29848;SDS011;16728;50.832;5.590;2023-02-22T07:48:16;24.75;;;15.43;;
29848;SDS011;16728;50.832;5.590;2023-02-22T07:51:20;48.67;;;23.42;;
29848;SDS011;16728;50.832;5.590;2023-02-22T07:54:23;30.20;;;15.97;;
29848;SDS011;16728;50.832;5.590;2023-02-22T07:57:25;21.23;;;14.43;;
29848;SDS011;16728;50.832;5.590;2023-02-22T08:00:37;38.08;;;23.00;;
29848;SDS011;16728;50.832;5.590;2023-02-22T08:03:40;23.83;;;14.48;;
29848;SDS011;16728;50.832;5.590;2023-02-22T08:06:42;22.13;;;13.75;;
29848;SDS011;16728;50.832;5.590;2023-02-22T08:09:46;20.02;;;13.02;;
29848;SDS011;16728;50.832;5.590;2023-02-22T08:12:48;21.52;;;13.02;;
29848;SDS011;16728;50.832;5.590;2023-02-22T08:15:51;20.98;;;13.70;;
29848;SDS011;16728;50.832;5.590;2023-02-22T08:18:54;21.17;;;13.63;;
29848;SDS011;16728;50.832;5.590;2023-02-22T08:21:55;23.73;;;14.48;;
29848;SDS011;16728;50.832;5.590;2023-02-22T08:24:57;22.83;;;13.52;;
29848;SDS011;16728;50.832;5.590;2023-02-22T08:28:00;25.65;;;14.15;;
29848;SDS011;16728;50.832;5.590;2023-02-22T08:31:05;27.80;;;13.85;;
29848;SDS011;16728;50.832;5.590;2023-02-22T08:34:09;25.92;;;14.63;;
29848;SDS011;16728;50.832;5.590;2023-02-22T08:37:10;25.25;;;15.00;;
29848;SDS011;16728;50.832;5.590;2023-02-22T08:40:13;23.70;;;14.18;;
29848;SDS011;16728;50.832;5.590;2023-02-22T08:43:18;22.60;;;13.88;;
29848;SDS011;16728;50.832;5.590;2023-02-22T08:46:20;22.65;;;14.35;;
29848;SDS011;16728;50.832;5.590;2023-02-22T08:49:22;23.63;;;14.60;;
29848;SDS011;16728;50.832;5.590;2023-02-22T08:52:24;23.08;;;14.38;;
29848;SDS011;16728;50.832;5.590;2023-02-22T08:55:27;26.70;;;14.27;;
29848;SDS011;16728;50.832;5.590;2023-02-22T08:58:32;23.90;;;13.70;;
29848;SDS011;16728;50.832;5.590;2023-02-22T09:01:35;23.10;;;13.93;;
29848;SDS011;16728;50.832;5.590;2023-02-22T09:04:37;18.52;;;13.30;;
29848;SDS011;16728;50.832;5.590;2023-02-22T09:07:40;25.88;;;10.80;;
29848;SDS011;16728;50.832;5.590;2023-02-22T09:10:42;15.60;;;9.27;;
29848;SDS011;16728;50.832;5.590;2023-02-22T09:13:45;17.25;;;10.50;;
29848;SDS011;16728;50.832;5.590;2023-02-22T09:16:47;15.45;;;9.52;;
29848;SDS011;16728;50.832;5.590;2023-02-22T09:19:49;13.40;;;9.13;;
29848;SDS011;16728;50.832;5.590;2023-02-22T09:22:51;11.48;;;7.60;;
29848;SDS011;16728;50.832;5.590;2023-02-22T09:25:54;12.13;;;7.77;;
29848;SDS011;16728;50.832;5.590;2023-02-22T09:28:56;11.25;;;6.95;;
29848;SDS011;16728;50.832;5.590;2023-02-22T09:31:57;11.20;;;7.28;;
29848;SDS011;16728;50.832;5.590;2023-02-22T09:34:59;12.32;;;7.40;;
29848;SDS011;16728;50.832;5.590;2023-02-22T09:38:02;12.43;;;6.85;;
29848;SDS011;16728;50.832;5.590;2023-02-22T09:41:12;16.38;;;7.28;;
29848;SDS011;16728;50.832;5.590;2023-02-22T09:44:54;13.13;;;7.20;;
29848;SDS011;16728;50.832;5.590;2023-02-22T09:48:06;13.07;;;7.63;;
29848;SDS011;16728;50.832;5.590;2023-02-22T09:51:22;12.35;;;7.55;;
29848;SDS011;16728;50.832;5.590;2023-02-22T09:57:36;12.60;;;7.70;;
29848;SDS011;16728;50.832;5.590;2023-02-22T10:00:42;13.90;;;7.22;;
29848;SDS011;16728;50.832;5.590;2023-02-22T10:03:51;10.90;;;8.02;;
29848;SDS011;16728;50.832;5.590;2023-02-22T10:07:15;12.35;;;6.85;;
29848;SDS011;16728;50.832;5.590;2023-02-22T10:10:27;12.15;;;7.53;;
29848;SDS011;16728;50.832;5.590;2023-02-22T10:13:39;13.85;;;7.20;;
29848;SDS011;16728;50.832;5.590;2023-02-22T10:20:19;12.25;;;8.45;;
29848;SDS011;16728;50.832;5.590;2023-02-22T10:23:40;14.38;;;9.30;;
29848;SDS011;16728;50.832;5.590;2023-02-22T10:26:47;18.23;;;8.73;;
29848;SDS011;16728;50.832;5.590;2023-02-22T10:29:56;18.17;;;9.48;;
29848;SDS011;16728;50.832;5.590;2023-02-22T10:33:23;15.23;;;9.52;;
29848;SDS011;16728;50.832;5.590;2023-02-22T10:36:32;21.30;;;10.13;;
29848;SDS011;16728;50.832;5.590;2023-02-22T10:39:35;18.27;;;9.80;;
29848;SDS011;16728;50.832;5.590;2023-02-22T10:42:39;14.93;;;9.48;;
29848;SDS011;16728;50.832;5.590;2023-02-22T10:45:41;15.65;;;9.77;;
29848;SDS011;16728;50.832;5.590;2023-02-22T10:48:44;16.10;;;9.85;;
29848;SDS011;16728;50.832;5.590;2023-02-22T10:51:56;12.68;;;9.30;;
29848;SDS011;16728;50.832;5.590;2023-02-22T10:55:02;16.13;;;9.40;;
29848;SDS011;16728;50.832;5.590;2023-02-22T10:58:16;13.40;;;9.80;;
29848;SDS011;16728;50.832;5.590;2023-02-22T11:01:25;14.40;;;9.80;;
29848;SDS011;16728;50.832;5.590;2023-02-22T11:04:31;19.48;;;10.40;;
29848;SDS011;16728;50.832;5.590;2023-02-22T11:07:46;17.20;;;10.38;;
29848;SDS011;16728;50.832;5.590;2023-02-22T11:10:49;14.70;;;10.25;;
29848;SDS011;16728;50.832;5.590;2023-02-22T11:13:54;16.88;;;10.77;;
29848;SDS011;16728;50.832;5.590;2023-02-22T11:16:57;16.92;;;11.30;;
29848;SDS011;16728;50.832;5.590;2023-02-22T11:20:00;17.15;;;10.80;;
29848;SDS011;16728;50.832;5.590;2023-02-22T11:23:03;15.93;;;10.27;;
29848;SDS011;16728;50.832;5.590;2023-02-22T11:26:09;15.73;;;11.27;;
29848;SDS011;16728;50.832;5.590;2023-02-22T11:29:19;15.20;;;10.60;;
29848;SDS011;16728;50.832;5.590;2023-02-22T11:32:32;15.32;;;11.15;;
29848;SDS011;16728;50.832;5.590;2023-02-22T11:35:38;16.23;;;11.13;;
29848;SDS011;16728;50.832;5.590;2023-02-22T11:38:54;17.85;;;10.15;;
29848;SDS011;16728;50.832;5.590;2023-02-22T11:42:20;14.40;;;10.90;;
29848;SDS011;16728;50.832;5.590;2023-02-22T11:45:24;17.95;;;10.98;;
29848;SDS011;16728;50.832;5.590;2023-02-22T11:48:28;16.77;;;11.07;;
29848;SDS011;16728;50.832;5.590;2023-02-22T11:54:51;14.98;;;11.35;;
29848;SDS011;16728;50.832;5.590;2023-02-22T12:01:33;17.52;;;11.85;;
29848;SDS011;16728;50.832;5.590;2023-02-22T12:11:48;18.58;;;12.70;;
29848;SDS011;16728;50.832;5.590;2023-02-22T12:18:33;17.20;;;12.30;;
29848;SDS011;16728;50.832;5.590;2023-02-22T12:21:43;17.40;;;10.93;;
29848;SDS011;16728;50.832;5.590;2023-02-22T12:24:52;16.95;;;12.15;;
29848;SDS011;16728;50.832;5.590;2023-02-22T12:34:37;15.13;;;11.77;;
29848;SDS011;16728;50.832;5.590;2023-02-22T12:37:58;14.95;;;11.35;;
29848;SDS011;16728;50.832;5.590;2023-02-22T12:41:33;16.42;;;12.27;;
29848;SDS011;16728;50.832;5.590;2023-02-22T12:44:44;17.92;;;12.23;;
29848;SDS011;16728;50.832;5.590;2023-02-22T12:48:02;19.67;;;12.13;;
29848;SDS011;16728;50.832;5.590;2023-02-22T12:51:18;17.10;;;13.05;;
29848;SDS011;16728;50.832;5.590;2023-02-22T12:54:46;16.83;;;11.70;;
29848;SDS011;16728;50.832;5.590;2023-02-22T13:01:49;20.27;;;14.48;;
29848;SDS011;16728;50.832;5.590;2023-02-22T13:04:55;17.48;;;13.18;;
29848;SDS011;16728;50.832;5.590;2023-02-22T13:15:07;17.98;;;13.02;;
29848;SDS011;16728;50.832;5.590;2023-02-22T13:25:04;17.75;;;12.55;;
29848;SDS011;16728;50.832;5.590;2023-02-22T13:31:38;17.13;;;13.70;;
29848;SDS011;16728;50.832;5.590;2023-02-22T13:51:47;25.35;;;13.55;;
29848;SDS011;16728;50.832;5.590;2023-02-22T13:55:00;19.33;;;13.57;;
29848;SDS011;16728;50.832;5.590;2023-02-22T13:58:11;18.60;;;13.93;;
29848;SDS011;16728;50.832;5.590;2023-02-22T14:01:35;20.33;;;14.68;;
29848;SDS011;16728;50.832;5.590;2023-02-22T14:04:48;21.27;;;16.58;;
29848;SDS011;16728;50.832;5.590;2023-02-22T14:07:50;22.45;;;15.05;;
29848;SDS011;16728;50.832;5.590;2023-02-22T14:20:28;17.40;;;14.02;;
29848;SDS011;16728;50.832;5.590;2023-02-22T14:23:41;21.60;;;14.80;;
29848;SDS011;16728;50.832;5.590;2023-02-22T14:26:58;19.05;;;14.68;;
29848;SDS011;16728;50.832;5.590;2023-02-22T14:30:05;17.92;;;13.65;;
29848;SDS011;16728;50.832;5.590;2023-02-22T14:33:48;17.98;;;14.30;;
29848;SDS011;16728;50.832;5.590;2023-02-22T14:36:50;19.33;;;14.30;;
29848;SDS011;16728;50.832;5.590;2023-02-22T14:40:25;21.00;;;15.18;;
29848;SDS011;16728;50.832;5.590;2023-02-22T14:43:36;18.50;;;14.23;;
29848;SDS011;16728;50.832;5.590;2023-02-22T14:46:39;21.87;;;14.60;;
29848;SDS011;16728;50.832;5.590;2023-02-22T14:49:44;22.80;;;15.98;;
29848;SDS011;16728;50.832;5.590;2023-02-22T15:41:05;24.02;;;18.23;;
29848;SDS011;16728;50.832;5.590;2023-02-22T15:44:14;22.23;;;18.27;;
29848;SDS011;16728;50.832;5.590;2023-02-22T15:47:25;26.77;;;19.38;;
29848;SDS011;16728;50.832;5.590;2023-02-22T15:50:35;23.40;;;18.13;;
29848;SDS011;16728;50.832;5.590;2023-02-22T15:53:39;25.25;;;17.52;;
29848;SDS011;16728;50.832;5.590;2023-02-22T15:56:50;22.73;;;17.90;;
29848;SDS011;16728;50.832;5.590;2023-02-22T15:59:57;24.60;;;19.52;;
29848;SDS011;16728;50.832;5.590;2023-02-22T16:02:59;28.20;;;19.52;;
29848;SDS011;16728;50.832;5.590;2023-02-22T16:06:01;23.52;;;19.17;;
29848;SDS011;16728;50.832;5.590;2023-02-22T16:09:14;28.02;;;19.30;;
29848;SDS011;16728;50.832;5.590;2023-02-22T16:15:20;26.50;;;20.98;;
29848;SDS011;16728;50.832;5.590;2023-02-22T16:18:23;29.27;;;21.05;;
29848;SDS011;16728;50.832;5.590;2023-02-22T16:21:53;29.15;;;20.88;;
29848;SDS011;16728;50.832;5.590;2023-02-22T16:28:25;29.25;;;21.13;;
29848;SDS011;16728;50.832;5.590;2023-02-22T16:31:37;25.92;;;20.15;;
29848;SDS011;16728;50.832;5.590;2023-02-22T16:34:40;28.45;;;21.27;;
29848;SDS011;16728;50.832;5.590;2023-02-22T16:37:54;25.90;;;20.17;;
29848;SDS011;16728;50.832;5.590;2023-02-22T16:40:57;27.70;;;19.95;;
29848;SDS011;16728;50.832;5.590;2023-02-22T16:44:00;30.10;;;19.80;;
29848;SDS011;16728;50.832;5.590;2023-02-22T16:47:03;26.77;;;21.20;;
29848;SDS011;16728;50.832;5.590;2023-02-22T16:50:04;30.40;;;21.45;;
29848;SDS011;16728;50.832;5.590;2023-02-22T16:53:07;26.47;;;20.57;;
29848;SDS011;16728;50.832;5.590;2023-02-22T16:56:10;29.63;;;21.27;;
29848;SDS011;16728;50.832;5.590;2023-02-22T16:59:16;30.60;;;21.20;;
29848;SDS011;16728;50.832;5.590;2023-02-22T17:02:19;30.75;;;21.52;;
29848;SDS011;16728;50.832;5.590;2023-02-22T17:05:20;27.95;;;21.38;;
29848;SDS011;16728;50.832;5.590;2023-02-22T17:08:22;32.83;;;21.17;;
29848;SDS011;16728;50.832;5.590;2023-02-22T17:11:24;29.63;;;22.25;;
29848;SDS011;16728;50.832;5.590;2023-02-22T17:14:29;28.02;;;22.20;;
29848;SDS011;16728;50.832;5.590;2023-02-22T17:17:34;31.48;;;22.58;;
29848;SDS011;16728;50.832;5.590;2023-02-22T17:20:36;28.45;;;23.13;;
29848;SDS011;16728;50.832;5.590;2023-02-22T17:23:38;31.05;;;23.75;;
29848;SDS011;16728;50.832;5.590;2023-02-22T17:26:40;29.35;;;23.60;;
29848;SDS011;16728;50.832;5.590;2023-02-22T17:29:42;29.95;;;22.58;;
29848;SDS011;16728;50.832;5.590;2023-02-22T17:32:48;38.33;;;24.45;;
29848;SDS011;16728;50.832;5.590;2023-02-22T17:35:52;31.50;;;23.58;;
29848;SDS011;16728;50.832;5.590;2023-02-22T17:38:56;30.33;;;23.75;;
29848;SDS011;16728;50.832;5.590;2023-02-22T17:41:59;33.10;;;25.02;;
29848;SDS011;16728;50.832;5.590;2023-02-22T17:45:01;31.92;;;23.27;;
29848;SDS011;16728;50.832;5.590;2023-02-22T17:48:03;35.95;;;25.15;;
29848;SDS011;16728;50.832;5.590;2023-02-22T17:51:06;37.78;;;26.13;;
29848;SDS011;16728;50.832;5.590;2023-02-22T17:54:11;31.83;;;25.90;;
29848;SDS011;16728;50.832;5.590;2023-02-22T17:57:13;31.75;;;23.85;;
29848;SDS011;16728;50.832;5.590;2023-02-22T18:00:16;33.33;;;26.25;;
29848;SDS011;16728;50.832;5.590;2023-02-22T18:03:24;34.38;;;25.73;;
29848;SDS011;16728;50.832;5.590;2023-02-22T18:06:27;34.13;;;25.75;;
29848;SDS011;16728;50.832;5.590;2023-02-22T18:09:30;33.25;;;25.15;;
29848;SDS011;16728;50.832;5.590;2023-02-22T18:12:32;35.38;;;27.27;;
29848;SDS011;16728;50.832;5.590;2023-02-22T18:15:34;39.60;;;28.67;;
29848;SDS011;16728;50.832;5.590;2023-02-22T18:18:39;35.15;;;28.00;;
29848;SDS011;16728;50.832;5.590;2023-02-22T18:21:41;45.03;;;32.50;;
29848;SDS011;16728;50.832;5.590;2023-02-22T18:24:42;43.50;;;31.85;;
29848;SDS011;16728;50.832;5.590;2023-02-22T18:27:44;47.28;;;34.80;;
29848;SDS011;16728;50.832;5.590;2023-02-22T18:30:46;45.00;;;32.85;;
29848;SDS011;16728;50.832;5.590;2023-02-22T18:33:49;40.20;;;28.65;;
29848;SDS011;16728;50.832;5.590;2023-02-22T18:36:52;42.83;;;31.75;;
29848;SDS011;16728;50.832;5.590;2023-02-22T18:39:55;36.57;;;27.87;;
29848;SDS011;16728;50.832;5.590;2023-02-22T18:46:07;39.35;;;29.05;;
29848;SDS011;16728;50.832;5.590;2023-02-22T18:49:13;33.53;;;27.10;;
29848;SDS011;16728;50.832;5.590;2023-02-22T18:52:15;36.83;;;26.70;;
29848;SDS011;16728;50.832;5.590;2023-02-22T18:55:18;34.13;;;27.45;;
29848;SDS011;16728;50.832;5.590;2023-02-22T18:58:22;33.38;;;26.35;;
29848;SDS011;16728;50.832;5.590;2023-02-22T19:01:24;33.42;;;26.98;;
29848;SDS011;16728;50.832;5.590;2023-02-22T19:04:27;33.75;;;25.83;;
29848;SDS011;16728;50.832;5.590;2023-02-22T19:07:29;31.50;;;26.08;;
29848;SDS011;16728;50.832;5.590;2023-02-22T19:10:32;34.00;;;27.70;;
29848;SDS011;16728;50.832;5.590;2023-02-22T19:13:35;33.30;;;27.00;;
29848;SDS011;16728;50.832;5.590;2023-02-22T19:16:38;36.78;;;26.90;;
29848;SDS011;16728;50.832;5.590;2023-02-22T19:19:41;32.88;;;26.23;;
29848;SDS011;16728;50.832;5.590;2023-02-22T19:22:43;32.90;;;26.83;;
29848;SDS011;16728;50.832;5.590;2023-02-22T19:25:46;34.30;;;27.05;;
29848;SDS011;16728;50.832;5.590;2023-02-22T19:28:48;40.15;;;29.48;;
29848;SDS011;16728;50.832;5.590;2023-02-22T19:31:51;37.97;;;28.17;;
29848;SDS011;16728;50.832;5.590;2023-02-22T19:34:54;36.60;;;28.27;;
29848;SDS011;16728;50.832;5.590;2023-02-22T19:38:02;32.58;;;26.85;;
29848;SDS011;16728;50.832;5.590;2023-02-22T19:41:06;37.28;;;26.52;;
29848;SDS011;16728;50.832;5.590;2023-02-22T19:44:10;32.90;;;27.08;;
29848;SDS011;16728;50.832;5.590;2023-02-22T19:47:13;36.50;;;28.15;;
29848;SDS011;16728;50.832;5.590;2023-02-22T19:50:15;35.15;;;28.33;;
29848;SDS011;16728;50.832;5.590;2023-02-22T19:53:19;43.08;;;27.27;;
29848;SDS011;16728;50.832;5.590;2023-02-22T19:56:21;34.67;;;27.85;;
29848;SDS011;16728;50.832;5.590;2023-02-22T19:59:30;35.70;;;27.33;;
29848;SDS011;16728;50.832;5.590;2023-02-22T20:02:32;34.97;;;27.52;;
29848;SDS011;16728;50.832;5.590;2023-02-22T20:05:38;39.83;;;28.52;;
29848;SDS011;16728;50.832;5.590;2023-02-22T20:08:40;37.47;;;29.00;;
29848;SDS011;16728;50.832;5.590;2023-02-22T20:11:43;35.28;;;27.52;;
29848;SDS011;16728;50.832;5.590;2023-02-22T20:14:48;33.50;;;26.77;;
29848;SDS011;16728;50.832;5.590;2023-02-22T20:17:50;35.53;;;28.13;;
29848;SDS011;16728;50.832;5.590;2023-02-22T20:20:52;38.00;;;28.02;;
29848;SDS011;16728;50.832;5.590;2023-02-22T20:23:53;35.17;;;26.65;;
29848;SDS011;16728;50.832;5.590;2023-02-22T20:26:57;34.10;;;28.38;;
29848;SDS011;16728;50.832;5.590;2023-02-22T20:30:00;40.08;;;27.52;;
29848;SDS011;16728;50.832;5.590;2023-02-22T20:33:02;38.53;;;27.73;;
29848;SDS011;16728;50.832;5.590;2023-02-22T20:36:05;38.30;;;29.47;;
29848;SDS011;16728;50.832;5.590;2023-02-22T20:39:11;34.42;;;28.25;;
29848;SDS011;16728;50.832;5.590;2023-02-22T20:42:14;35.50;;;27.63;;
29848;SDS011;16728;50.832;5.590;2023-02-22T20:45:16;34.73;;;28.03;;
29848;SDS011;16728;50.832;5.590;2023-02-22T20:48:20;39.38;;;28.63;;
29848;SDS011;16728;50.832;5.590;2023-02-22T20:51:22;38.20;;;29.58;;
29848;SDS011;16728;50.832;5.590;2023-02-22T20:54:24;40.05;;;30.77;;
29848;SDS011;16728;50.832;5.590;2023-02-22T20:57:26;41.40;;;31.25;;
29848;SDS011;16728;50.832;5.590;2023-02-22T21:00:28;45.67;;;33.50;;